メインページ
METAR-TAF:

METAR-TAF

空港 :

ンジャメナ国際空港

ンジャメナ, チャド

緯度: 12-08N, 経度: 015-02E, 海抜: 295m

現時点の気象観測

当レポートは1時間0分前の09:00(UTC)に作成
の風 11kt、から東/北東の間で変化する
気温 24°C
湿度 19%
気圧 1017 hPa
視程: 2500m
広範な塵

METAR: FTTJ 190900Z 36011KT 360V060 2500 DU NSC 24/M01 Q1017 NOSIG

時間: 11:00 (10:00 UTC)

予報

当レポートは5時間0分前の05:00(UTC)に作成
予報は19日の 06時(UTC)から 20日の 12時(UTC)まで有効
北/北西の風 6kt
視程: 2500m
広範な塵
19日の 06時(UTC)から 19日の 08時(UTC)まで徐々に
北東の風 14kt
視程: 4500m
風塵
19日の 15時(UTC)から 19日の 17時(UTC)まで徐々に
の風 6kt
視程: 2500m
広範な塵
19日の 20時(UTC)から 20日の 07時(UTC)まで一時的に
視程: 1200m
時(UTC)から
北東の風 14kt
視程: 3500m
風塵

TAF: FTTJ 190500Z 1906/2012 34006KT 2500 DU NSC BECMG 1906/1908 04014KT 4500 BLDU BECMG 1915/1917 36006KT 2500 DU TEMPO 1920/2007 1200 FM 200800 04014KT 3500 BLDU

4,000以上の空港の気象観測と天気予報(METAR報とTAF報)

利用可能な観測所は地図上に黄色い丸と赤い丸で示す。

丸の上にカーソルを重ねると観測所名を参照できる。

次にクリックすると気象観測と天気予報を参照できる。

マップの切り替え:黒色「×」印の緑ボタンをクリックして拡大、「-」印の緑ボタンをクリックして縮小、緑色の三角印をクリックして隣りの地図に切り替え


METAR-TAF: